Time;durP1;ratioP1;P1;durP2;ratioP2;P2;SDS_P1;SDS_P2;PMS_P1;PMS_P2;Temp;Humidity;BMP_temperature;BMP_pressure;BME280_temperature;BME280_humidity;BME280_pressure;Samples;Min_cycle;Max_cycle;Signal;HPM_P1;HPM_P2
2023/09/01 00:02:36;;;;;;;6.63;4.28;;;14.00;99.90;;;;;;5065175;28;20028;-47
2023/09/01 00:05:22;;;;;;;5.10;4.60;;;13.90;99.90;;;;;;5080095;28;20060;-49
2023/09/01 00:08:08;;;;;;;4.90;4.40;;;13.90;99.90;;;;;;5079429;28;20034;-47
2023/09/01 00:10:54;;;;;;;5.43;4.72;;;13.90;99.90;;;;;;5079490;28;20032;-47
2023/09/01 00:13:41;;;;;;;4.82;4.43;;;13.90;99.90;;;;;;5065385;28;20028;-49
2023/09/01 00:16:27;;;;;;;4.55;4.05;;;14.00;99.90;;;;;;5077634;28;20032;-48
2023/09/01 00:19:13;;;;;;;7.18;4.20;;;14.00;99.90;;;;;;5080002;28;20032;-52
2023/09/01 00:21:59;;;;;;;4.68;4.28;;;14.00;99.90;;;;;;5061812;28;20103;-48
2023/09/01 00:24:45;;;;;;;5.70;4.25;;;14.00;99.90;;;;;;5066045;28;20020;-53
2023/09/01 00:27:31;;;;;;;5.82;5.13;;;14.00;99.90;;;;;;5083837;28;20634;-55
2023/09/01 00:30:17;;;;;;;4.70;4.20;;;13.90;99.90;;;;;;5090823;28;20496;-49
2023/09/01 00:33:03;;;;;;;5.97;4.95;;;13.90;99.90;;;;;;5075880;28;20518;-53
2023/09/01 00:35:50;;;;;;;5.00;4.50;;;13.90;99.90;;;;;;5074360;28;20493;-49
2023/09/01 00:38:36;;;;;;;5.90;4.45;;;13.90;99.90;;;;;;5069168;28;20119;-51
2023/09/01 00:41:22;;;;;;;5.60;4.40;;;13.90;99.90;;;;;;5042455;28;20025;-46
2023/09/01 00:44:14;;;;;;;5.10;4.60;;;13.90;99.90;;;;;;5070331;28;20039;-47
2023/09/01 00:47:00;;;;;;;6.13;4.55;;;13.90;99.90;;;;;;5077813;28;20066;-55
2023/09/01 00:49:46;;;;;;;5.57;4.72;;;13.80;99.90;;;;;;5090495;28;20024;-50
2023/09/01 00:52:32;;;;;;;28.50;17.33;;;13.80;99.90;;;;;;5076471;28;20024;-52
2023/09/01 00:55:18;;;;;;;29.10;18.48;;;13.80;99.90;;;;;;5093659;28;20032;-52
2023/09/01 00:58:05;;;;;;;13.43;8.98;;;13.90;99.90;;;;;;5078494;28;20042;-49
2023/09/01 01:00:52;;;;;;;6.93;6.03;;;13.80;99.90;;;;;;5093324;28;20099;-48
2023/09/01 01:03:40;;;;;;;5.78;5.18;;;13.90;99.90;;;;;;5094535;28;20032;-51
2023/09/01 01:07:10;;;;;;;5.43;4.57;;;13.80;99.90;;;;;;5089863;28;20404;-48
2023/09/01 01:10:25;;;;;;;5.80;5.22;;;13.80;99.90;;;;;;5066965;28;20127;-54
2023/09/01 01:13:15;;;;;;;5.28;4.72;;;13.80;99.90;;;;;;5069518;28;20033;-45
2023/09/01 01:16:02;;;;;;;6.32;5.00;;;13.80;99.90;;;;;;5075175;28;20036;-52
2023/09/01 01:18:50;;;;;;;6.88;4.75;;;13.80;99.90;;;;;;5074944;28;20047;-50
2023/09/01 01:21:38;;;;;;;7.22;5.03;;;13.70;99.90;;;;;;5058152;28;20082;-49
2023/09/01 01:24:25;;;;;;;5.05;4.55;;;13.70;99.90;;;;;;5073918;28;20514;-51
2023/09/01 01:27:11;;;;;;;5.70;5.03;;;13.70;99.90;;;;;;5082741;28;20032;-53
2023/09/01 01:29:57;;;;;;;5.85;5.13;;;13.80;99.90;;;;;;5092774;28;20164;-52
2023/09/01 01:32:43;;;;;;;6.13;5.20;;;13.70;99.90;;;;;;5092810;28;20031;-49
2023/09/01 01:35:35;;;;;;;6.30;4.80;;;13.70;99.90;;;;;;5092967;28;20032;-49
2023/09/01 01:38:25;;;;;;;6.28;4.72;;;13.70;99.90;;;;;;5073905;28;20081;-48
2023/09/01 01:41:18;;;;;;;5.70;4.63;;;13.60;99.90;;;;;;5059469;28;20024;-47
2023/09/01 01:44:06;;;;;;;6.45;5.10;;;13.60;99.90;;;;;;5073082;28;20110;-52
2023/09/01 01:46:53;;;;;;;6.70;4.85;;;13.60;99.90;;;;;;5058578;28;20111;-46
2023/09/01 01:49:39;;;;;;;4.90;4.43;;;13.60;99.90;;;;;;5074155;28;20020;-52
2023/09/01 01:52:25;;;;;;;6.30;4.53;;;13.50;99.90;;;;;;5073726;28;20048;-53
2023/09/01 01:55:11;;;;;;;5.18;4.68;;;13.50;99.90;;;;;;5058824;28;20031;-53
2023/09/01 01:57:57;;;;;;;6.80;4.80;;;13.50;99.90;;;;;;5091163;28;20020;-50
2023/09/01 02:00:43;;;;;;;5.68;4.70;;;13.50;99.90;;;;;;5092603;28;20115;-52
2023/09/01 02:03:29;;;;;;;6.28;4.38;;;13.50;99.90;;;;;;5093412;28;20039;-51
2023/09/01 02:06:15;;;;;;;9.30;5.43;;;13.40;99.90;;;;;;5089168;28;20032;-48
2023/09/01 02:09:03;;;;;;;8.65;5.25;;;13.30;99.90;;;;;;5073883;28;20516;-48
2023/09/01 02:11:48;;;;;;;7.15;4.80;;;13.40;99.90;;;;;;5073453;28;20083;-49
2023/09/01 02:14:35;;;;;;;6.10;5.00;;;13.40;99.90;;;;;;5073092;28;20028;-48
2023/09/01 02:17:22;;;;;;;5.07;4.47;;;13.40;99.90;;;;;;5070054;28;20024;-51
2023/09/01 02:20:16;;;;;;;5.22;4.60;;;13.40;99.90;;;;;;5091936;28;20107;-48
2023/09/01 02:23:04;;;;;;;6.95;5.28;;;13.40;99.90;;;;;;5093579;28;20027;-55
2023/09/01 02:25:50;;;;;;;5.72;4.90;;;13.40;99.90;;;;;;5076724;28;20033;-48
2023/09/01 02:28:36;;;;;;;6.95;4.53;;;13.40;99.90;;;;;;5073380;28;20039;-49
2023/09/01 02:31:22;;;;;;;7.65;5.00;;;13.40;99.90;;;;;;5072983;28;20037;-46
2023/09/01 02:34:08;;;;;;;5.88;4.97;;;13.50;99.90;;;;;;5071791;28;20042;-50
2023/09/01 02:36:54;;;;;;;5.30;4.80;;;13.50;99.90;;;;;;5079606;28;20496;-47
2023/09/01 02:39:40;;;;;;;5.57;4.93;;;13.50;99.90;;;;;;5091784;28;20070;-50
2023/09/01 02:42:26;;;;;;;6.35;4.85;;;13.50;99.90;;;;;;5092679;28;20032;-46
2023/09/01 02:45:13;;;;;;;9.55;5.50;;;13.40;99.90;;;;;;5091800;28;20395;-48
2023/09/01 02:47:59;;;;;;;4.88;4.47;;;13.40;99.90;;;;;;5092449;28;20028;-54
2023/09/01 02:50:45;;;;;;;7.40;5.22;;;13.40;99.90;;;;;;5092385;28;20056;-51
2023/09/01 02:53:32;;;;;;;11.90;4.95;;;13.30;99.90;;;;;;5091338;28;20706;-52
2023/09/01 02:56:19;;;;;;;7.30;4.90;;;13.30;99.90;;;;;;5088879;28;20065;-46
2023/09/01 02:59:04;;;;;;;6.72;5.32;;;13.20;99.90;;;;;;5058209;28;20036;-49
2023/09/01 03:01:50;;;;;;;5.03;4.57;;;13.20;99.90;;;;;;5058045;28;20033;-48
2023/09/01 03:04:37;;;;;;;6.82;4.60;;;13.20;99.90;;;;;;5071558;28;20021;-47
2023/09/01 03:07:24;;;;;;;7.97;5.03;;;13.20;99.90;;;;;;5072673;28;20385;-50
2023/09/01 03:10:09;;;;;;;6.38;4.90;;;13.20;99.90;;;;;;5072192;28;20036;-47
2023/09/01 03:12:56;;;;;;;7.78;5.07;;;13.20;99.90;;;;;;5070753;28;20025;-51
2023/09/01 03:15:42;;;;;;;6.07;5.45;;;13.20;99.90;;;;;;5080552;28;20043;-47
2023/09/01 03:18:28;;;;;;;5.57;4.63;;;13.20;99.90;;;;;;5071519;28;20064;-54
2023/09/01 03:21:14;;;;;;;5.35;4.70;;;13.20;99.90;;;;;;5043043;28;20036;-53
2023/09/01 03:24:00;;;;;;;6.03;5.18;;;13.20;99.90;;;;;;5072089;28;20032;-49
2023/09/01 03:26:46;;;;;;;7.65;5.60;;;13.10;99.90;;;;;;5073319;28;20040;-53
2023/09/01 03:29:32;;;;;;;8.32;5.43;;;13.10;99.90;;;;;;5070936;28;20032;-53
2023/09/01 03:32:18;;;;;;;6.10;5.13;;;13.20;99.90;;;;;;5071774;28;20036;-52
2023/09/01 03:35:05;;;;;;;7.35;5.45;;;13.10;99.90;;;;;;5071219;28;20065;-53
2023/09/01 03:37:51;;;;;;;8.02;5.00;;;13.10;99.90;;;;;;5086233;28;20111;-56
2023/09/01 03:40:37;;;;;;;6.80;6.05;;;13.00;99.90;;;;;;5090170;28;20032;-54
2023/09/01 03:43:23;;;;;;;6.50;5.22;;;13.10;99.90;;;;;;5091290;28;20024;-54
2023/09/01 03:46:09;;;;;;;7.57;5.88;;;13.10;99.90;;;;;;5087607;28;20033;-50
2023/09/01 03:48:55;;;;;;;9.10;6.07;;;13.20;99.90;;;;;;5071853;28;20033;-53
2023/09/01 03:51:41;;;;;;;7.75;6.00;;;13.10;99.90;;;;;;5070400;28;20602;-53
2023/09/01 03:54:27;;;;;;;6.68;6.05;;;13.10;99.90;;;;;;5071705;28;20574;-54
2023/09/01 03:57:15;;;;;;;10.05;6.22;;;13.10;99.90;;;;;;5069081;28;20370;-54
2023/09/01 04:00:10;;;;;;;8.13;5.90;;;13.10;99.90;;;;;;5057009;28;20024;-54
2023/09/01 04:02:56;;;;;;;7.10;5.85;;;13.10;99.90;;;;;;5079051;28;20032;-52
2023/09/01 04:05:42;;;;;;;7.18;6.15;;;13.10;99.90;;;;;;5080901;28;20067;-52
2023/09/01 04:08:28;;;;;;;10.13;6.68;;;13.10;99.90;;;;;;5071532;28;20031;-56
2023/09/01 04:11:14;;;;;;;9.02;6.70;;;13.10;99.90;;;;;;5072328;28;20555;-53
2023/09/01 04:14:00;;;;;;;6.93;6.22;;;13.10;99.90;;;;;;5087847;28;20568;-52
2023/09/01 04:16:46;;;;;;;8.90;6.47;;;13.10;99.90;;;;;;5090394;28;20029;-51
2023/09/01 04:19:32;;;;;;;6.97;6.20;;;13.10;99.90;;;;;;5091068;28;20020;-51
2023/09/01 04:22:18;;;;;;;9.02;6.75;;;13.10;99.90;;;;;;5088809;28;20085;-52
2023/09/01 04:25:04;;;;;;;12.85;6.70;;;13.10;99.90;;;;;;5069906;28;20035;-53
2023/09/01 04:27:50;;;;;;;12.90;10.07;;;13.10;99.90;;;;;;5056096;28;20489;-48
2023/09/01 04:30:36;;;;;;;15.30;11.73;;;13.10;99.90;;;;;;5071167;28;20044;-53
2023/09/01 04:33:22;;;;;;;7.90;7.07;;;13.10;99.90;;;;;;5080310;28;20044;-52
2023/09/01 04:36:08;;;;;;;12.93;7.72;;;13.10;99.90;;;;;;5090012;28;20024;-53
2023/09/01 04:38:54;;;;;;;9.40;7.13;;;13.20;99.90;;;;;;5075794;28;20630;-51
2023/09/01 04:41:40;;;;;;;9.10;7.00;;;13.10;99.90;;;;;;5076111;28;20024;-53
2023/09/01 04:44:27;;;;;;;9.70;6.72;;;13.20;99.90;;;;;;5055706;28;20078;-50
2023/09/01 04:47:13;;;;;;;8.65;6.72;;;13.20;99.90;;;;;;5069874;28;20044;-51
2023/09/01 04:49:59;;;;;;;11.02;6.32;;;13.20;99.90;;;;;;5070856;28;20035;-50
2023/09/01 04:52:45;;;;;;;10.00;6.43;;;13.20;99.90;;;;;;5079405;28;20051;-50
2023/09/01 04:55:31;;;;;;;11.40;6.22;;;13.30;99.90;;;;;;5088705;28;20032;-55
2023/09/01 04:58:17;;;;;;;8.00;6.28;;;13.20;99.90;;;;;;5074953;28;20028;-52
2023/09/01 05:01:03;;;;;;;10.73;6.80;;;13.20;99.90;;;;;;5089002;28;20082;-52
2023/09/01 05:03:49;;;;;;;8.73;6.20;;;13.20;99.90;;;;;;5072624;28;20110;-53
2023/09/01 05:06:35;;;;;;;8.65;6.55;;;13.20;99.90;;;;;;5070887;28;20020;-53
2023/09/01 05:09:21;;;;;;;10.32;6.63;;;13.20;99.90;;;;;;5072620;28;20033;-53
2023/09/01 05:12:08;;;;;;;11.00;6.95;;;13.20;99.90;;;;;;5059210;28;20085;-53
2023/09/01 05:14:54;;;;;;;11.82;6.70;;;13.30;99.90;;;;;;5090563;28;20035;-51
2023/09/01 05:17:40;;;;;;;8.13;6.70;;;13.30;99.90;;;;;;5090817;28;20493;-54
2023/09/01 05:20:26;;;;;;;11.02;6.60;;;13.30;99.90;;;;;;5090314;28;20043;-51
2023/09/01 05:23:12;;;;;;;10.50;6.82;;;13.40;99.90;;;;;;5077020;28;20055;-55
2023/09/01 05:25:58;;;;;;;11.68;6.47;;;13.40;99.90;;;;;;5070599;28;20122;-54
2023/09/01 05:28:44;;;;;;;10.02;7.38;;;13.50;99.90;;;;;;5055799;28;20025;-54
2023/09/01 05:31:30;;;;;;;14.13;8.57;;;13.50;99.90;;;;;;5082089;28;20048;-54
2023/09/01 05:34:15;;;;;;;12.05;7.93;;;13.60;99.90;;;;;;5094697;28;20032;-54
2023/09/01 05:37:02;;;;;;;10.85;7.00;;;13.60;99.90;;;;;;5088093;28;20055;-52
2023/09/01 05:39:48;;;;;;;12.95;7.07;;;13.70;99.90;;;;;;5072385;28;20109;-53
2023/09/01 05:42:33;;;;;;;12.38;7.03;;;13.60;99.90;;;;;;5072798;28;20647;-55
2023/09/01 05:45:19;;;;;;;12.63;7.03;;;13.70;99.90;;;;;;5079355;28;20029;-49
2023/09/01 05:48:06;;;;;;;11.50;6.55;;;13.70;99.90;;;;;;5094150;28;20112;-49
2023/09/01 05:50:52;;;;;;;10.10;6.85;;;13.70;99.90;;;;;;5094352;28;20039;-54
2023/09/01 05:53:38;;;;;;;8.35;6.78;;;13.70;99.90;;;;;;5093801;28;20043;-52
2023/09/01 05:56:24;;;;;;;8.73;6.40;;;13.70;99.90;;;;;;5093936;28;20250;-48
2023/09/01 05:59:11;;;;;;;8.77;6.05;;;13.70;99.90;;;;;;5094582;28;20115;-52
2023/09/01 06:01:58;;;;;;;9.13;6.40;;;13.70;99.90;;;;;;5091976;28;20507;-51
2023/09/01 06:04:44;;;;;;;8.82;6.25;;;13.70;99.90;;;;;;5092928;28;20089;-53
2023/09/01 06:07:30;;;;;;;13.35;6.45;;;13.70;99.90;;;;;;5091438;28;20024;-54
2023/09/01 06:10:16;;;;;;;11.48;6.85;;;13.70;99.90;;;;;;5074711;28;20079;-50
2023/09/01 06:13:02;;;;;;;10.13;6.47;;;13.80;99.90;;;;;;5072426;28;20025;-52
2023/09/01 06:15:48;;;;;;;12.52;6.35;;;13.70;99.90;;;;;;5075254;28;20032;-49
2023/09/01 06:18:34;;;;;;;8.95;6.78;;;13.80;99.90;;;;;;5072763;28;20627;-49
2023/09/01 06:21:20;;;;;;;9.02;6.50;;;13.90;99.90;;;;;;5061528;28;20040;-55
2023/09/01 06:24:07;;;;;;;10.45;6.82;;;13.90;99.90;;;;;;5071847;28;20098;-50
2023/09/01 06:26:54;;;;;;;18.00;7.32;;;13.90;99.90;;;;;;5075275;28;20039;-49
2023/09/01 06:29:40;;;;;;;13.32;8.32;;;14.10;99.90;;;;;;5073884;28;20046;-49
2023/09/01 06:32:26;;;;;;;9.15;6.88;;;14.20;99.90;;;;;;5072641;28;20032;-50
2023/09/01 06:35:12;;;;;;;11.38;6.13;;;14.20;99.90;;;;;;5072143;28;20097;-51
2023/09/01 06:37:57;;;;;;;8.70;5.97;;;14.10;99.90;;;;;;5073987;28;20029;-50
2023/09/01 06:40:43;;;;;;;11.18;6.93;;;14.20;99.90;;;;;;5084239;28;20036;-50
2023/09/01 06:43:30;;;;;;;18.05;7.60;;;14.20;99.90;;;;;;5082761;28;20024;-53
2023/09/01 06:46:16;;;;;;;11.18;6.50;;;14.30;99.90;;;;;;5093028;28;20024;-55
2023/09/01 06:49:02;;;;;;;10.65;6.32;;;14.50;99.90;;;;;;5091865;28;20657;-50
2023/09/01 06:51:48;;;;;;;9.77;6.25;;;14.50;99.90;;;;;;5083949;28;20511;-51
2023/09/01 06:54:34;;;;;;;9.48;6.15;;;14.60;99.90;;;;;;5081319;28;20020;-54
2023/09/01 06:57:20;;;;;;;12.60;7.50;;;14.70;99.90;;;;;;5081425;28;20103;-49
2023/09/01 07:00:07;;;;;;;11.10;6.47;;;14.80;99.90;;;;;;5082359;28;20021;-54
2023/09/01 07:02:53;;;;;;;8.05;6.15;;;14.90;99.90;;;;;;5077477;28;20036;-47
2023/09/01 07:05:38;;;;;;;9.57;6.05;;;14.90;99.90;;;;;;5070683;28;20043;-50
2023/09/01 07:08:27;;;;;;;10.80;7.15;;;15.10;99.90;;;;;;5089802;28;20120;-53
2023/09/01 07:11:19;;;;;;;9.77;5.93;;;15.20;99.90;;;;;;5086074;28;20026;-54
2023/09/01 07:14:05;;;;;;;9.90;6.40;;;15.40;99.90;;;;;;5076510;28;20161;-52
2023/09/01 07:16:51;;;;;;;9.48;6.25;;;15.50;99.90;;;;;;5057375;28;20396;-52
2023/09/01 07:19:37;;;;;;;10.98;6.75;;;15.50;99.90;;;;;;5066210;28;20055;-50
2023/09/01 07:22:23;;;;;;;7.90;6.25;;;15.60;99.90;;;;;;5072253;28;20036;-50
2023/09/01 07:25:11;;;;;;;9.98;5.78;;;15.60;99.90;;;;;;5088198;28;20039;-51
2023/09/01 07:27:57;;;;;;;12.43;6.45;;;15.60;99.90;;;;;;5090794;28;20024;-50
2023/09/01 07:30:43;;;;;;;14.02;6.25;;;15.50;99.90;;;;;;5091749;28;20059;-46
2023/09/01 07:33:30;;;;;;;10.95;6.70;;;15.60;99.90;;;;;;5091924;28;20027;-51
2023/09/01 07:36:16;;;;;;;12.70;6.75;;;15.80;99.90;;;;;;5092322;28;20036;-53
2023/09/01 07:39:02;;;;;;;9.32;6.28;;;15.80;99.90;;;;;;5092035;28;20028;-54
2023/09/01 07:41:48;;;;;;;10.23;6.38;;;15.90;99.90;;;;;;5076278;28;20413;-54
2023/09/01 07:44:34;;;;;;;8.70;6.40;;;16.00;99.90;;;;;;5091399;28;20442;-51
2023/09/01 07:47:20;;;;;;;8.02;6.15;;;16.00;99.90;;;;;;5091341;28;20024;-51
2023/09/01 07:50:06;;;;;;;10.25;6.75;;;16.10;99.90;;;;;;5091443;28;20074;-50
2023/09/01 07:52:52;;;;;;;9.43;6.70;;;16.20;99.90;;;;;;5090240;28;20039;-50
2023/09/01 07:55:38;;;;;;;10.38;6.47;;;16.30;99.90;;;;;;5090486;28;20081;-45
2023/09/01 07:58:24;;;;;;;8.57;5.63;;;16.40;99.90;;;;;;5091358;28;20416;-48
2023/09/01 08:01:10;;;;;;;9.23;6.32;;;16.50;99.90;;;;;;5089860;28;20032;-48
2023/09/01 08:04:00;;;;;;;9.00;6.55;;;16.60;99.90;;;;;;5089509;28;20023;-50
2023/09/01 08:06:47;;;;;;;7.55;5.38;;;16.60;99.90;;;;;;5090652;28;20073;-46
2023/09/01 08:09:33;;;;;;;8.02;5.68;;;16.50;99.90;;;;;;5075562;28;20050;-54
2023/09/01 08:12:18;;;;;;;9.57;5.70;;;16.60;99.90;;;;;;5090821;28;20066;-46
2023/09/01 08:15:05;;;;;;;9.88;5.63;;;16.70;99.90;;;;;;5090261;28;20564;-54
2023/09/01 08:17:53;;;;;;;10.40;5.60;;;16.80;99.90;;;;;;5089606;28;20111;-49
2023/09/01 08:20:40;;;;;;;9.18;5.70;;;16.80;99.90;;;;;;5090961;28;20615;-50
2023/09/01 08:23:26;;;;;;;9.32;5.65;;;16.90;99.90;;;;;;5089652;28;20414;-52
2023/09/01 08:26:11;;;;;;;10.80;5.88;;;17.00;99.90;;;;;;5089708;28;20508;-49
2023/09/01 08:28:57;;;;;;;12.52;5.40;;;17.00;99.90;;;;;;5092274;28;20479;-49
2023/09/01 08:31:43;;;;;;;13.48;5.70;;;17.10;99.90;;;;;;5090460;28;20084;-52
2023/09/01 08:34:31;;;;;;;9.82;5.70;;;17.30;99.90;;;;;;5062551;28;20055;-46
2023/09/01 08:37:17;;;;;;;8.07;5.18;;;17.50;99.90;;;;;;5090212;28;20419;-47
2023/09/01 08:40:05;;;;;;;13.77;5.68;;;17.50;99.90;;;;;;5073162;28;20032;-54
2023/09/01 08:42:51;;;;;;;8.77;5.25;;;17.50;99.90;;;;;;5090508;28;20056;-48
2023/09/01 08:45:37;;;;;;;11.18;5.47;;;17.60;99.90;;;;;;5074253;28;20032;-52
2023/09/01 08:48:23;;;;;;;10.63;4.97;;;17.60;99.90;;;;;;5085507;28;20028;-49
2023/09/01 08:51:09;;;;;;;6.25;5.05;;;17.70;99.90;;;;;;5083866;28;20404;-49
2023/09/01 08:53:55;;;;;;;10.48;5.50;;;17.60;99.90;;;;;;5089425;28;20056;-56
2023/09/01 08:56:41;;;;;;;9.20;5.82;;;17.60;99.90;;;;;;5089708;28;20553;-48
2023/09/01 08:59:28;;;;;;;7.53;5.70;;;17.70;99.90;;;;;;5071756;28;20032;-51
2023/09/01 09:02:14;;;;;;;7.60;5.10;;;17.80;99.90;;;;;;5090220;28;20077;-51
2023/09/01 09:05:02;;;;;;;8.23;5.40;;;18.00;99.90;;;;;;5090318;28;20056;-55
2023/09/01 09:08:03;;;;;;;8.30;5.20;;;18.00;99.90;;;;;;5089715;28;20020;-51
2023/09/01 09:10:49;;;;;;;8.43;6.03;;;18.10;99.90;;;;;;5089997;28;20028;-50
2023/09/01 09:13:35;;;;;;;9.52;5.78;;;18.10;99.90;;;;;;5093238;28;20480;-52
2023/09/01 09:16:22;;;;;;;8.88;5.20;;;18.30;99.90;;;;;;5093394;28;20036;-51
2023/09/01 09:19:10;;;;;;;11.35;5.90;;;18.30;99.90;;;;;;5093773;28;20042;-51
2023/09/01 09:22:06;;;;;;;10.55;6.00;;;18.40;99.90;;;;;;5093655;28;20039;-47
2023/09/01 09:24:52;;;;;;;7.13;5.40;;;18.60;99.90;;;;;;5092685;28;20024;-49
2023/09/01 09:27:38;;;;;;;10.23;5.75;;;18.80;99.90;;;;;;5093243;28;20035;-51
2023/09/01 09:30:28;;;;;;;10.20;5.60;;;18.90;99.90;;;;;;5093664;28;20543;-51
2023/09/01 09:33:14;;;;;;;11.98;5.97;;;19.10;99.90;;;;;;5093301;28;20353;-47
2023/09/01 09:36:03;;;;;;;7.97;4.93;;;19.30;99.90;;;;;;5092255;28;20024;-49
2023/09/01 09:38:50;;;;;;;9.57;5.10;;;19.20;99.90;;;;;;5093397;28;20520;-52
2023/09/01 09:41:45;;;;;;;15.48;5.13;;;19.30;99.90;;;;;;5092835;28;20032;-50
2023/09/01 09:44:33;;;;;;;12.18;6.22;;;19.20;99.90;;;;;;5092964;28;20040;-53
2023/09/01 09:47:19;;;;;;;12.30;7.53;;;19.30;99.90;;;;;;5092583;28;20024;-51
2023/09/01 09:50:06;;;;;;;7.07;4.97;;;19.30;99.90;;;;;;5077795;28;20025;-54
2023/09/01 09:53:00;;;;;;;10.35;4.82;;;19.40;99.90;;;;;;5093966;28;20442;-46
2023/09/01 09:55:49;;;;;;;10.07;5.57;;;19.50;99.90;;;;;;5092864;28;20035;-45
2023/09/01 09:58:40;;;;;;;9.02;5.55;;;19.70;99.90;;;;;;5093725;28;20032;-50
2023/09/01 10:01:27;;;;;;;10.77;5.25;;;19.70;99.90;;;;;;5092335;28;20111;-51
2023/09/01 10:04:14;;;;;;;10.80;5.70;;;19.70;99.90;;;;;;5092152;28;20412;-47
2023/09/01 10:07:00;;;;;;;9.43;4.82;;;19.70;99.90;;;;;;5092803;28;20116;-53
2023/09/01 10:09:46;;;;;;;7.75;4.97;;;19.80;99.90;;;;;;5093276;28;20032;-53
2023/09/01 10:12:32;;;;;;;10.63;5.35;;;19.80;99.60;;;;;;5094696;28;20085;-51
2023/09/01 10:15:20;;;;;;;7.70;5.32;;;19.80;99.60;;;;;;5093166;28;20038;-52
2023/09/01 10:18:08;;;;;;;10.25;5.80;;;19.70;99.90;;;;;;5094446;28;20111;-52
2023/09/01 10:20:54;;;;;;;8.52;5.38;;;19.90;99.80;;;;;;5092257;28;20064;-46
2023/09/01 10:23:41;;;;;;;7.13;4.80;;;20.20;99.60;;;;;;5091829;28;20580;-49
2023/09/01 10:26:28;;;;;;;9.02;5.00;;;20.10;99.90;;;;;;5092487;28;20079;-52
2023/09/01 10:29:34;;;;;;;8.20;5.57;;;20.20;99.70;;;;;;5092711;28;20016;-48
2023/09/01 10:32:20;;;;;;;9.77;6.30;;;20.40;99.50;;;;;;5092765;28;20063;-48
2023/09/01 10:35:07;;;;;;;6.70;5.20;;;20.40;98.20;;;;;;5090863;28;20040;-46
2023/09/01 10:38:17;;;;;;;6.65;4.85;;;20.40;99.00;;;;;;5092724;28;20028;-55
2023/09/01 10:41:03;;;;;;;8.35;4.85;;;20.40;98.80;;;;;;5092466;28;20035;-46
2023/09/01 10:43:53;;;;;;;8.60;4.65;;;20.40;98.00;;;;;;5091888;28;20028;-57
2023/09/01 10:46:39;;;;;;;11.00;5.18;;;20.50;97.90;;;;;;5091936;28;20036;-49
2023/09/01 10:50:00;;;;;;;9.13;4.80;;;20.60;98.20;;;;;;5076697;28;20032;-46
2023/09/01 10:53:24;;;;;;;12.27;4.85;;;20.50;97.90;;;;;;5091459;28;20162;-53
2023/09/01 10:56:11;;;;;;;9.23;4.82;;;20.70;96.90;;;;;;5075802;28;20047;-53
2023/09/01 10:58:58;;;;;;;7.45;4.40;;;20.80;97.00;;;;;;5076935;28;20264;-50
2023/09/01 11:01:44;;;;;;;7.55;5.05;;;20.90;97.00;;;;;;5076806;28;20039;-53
2023/09/01 11:04:30;;;;;;;6.78;4.40;;;20.80;96.70;;;;;;5091305;28;20036;-54
2023/09/01 11:07:16;;;;;;;9.38;4.97;;;20.60;96.90;;;;;;5090926;28;20516;-55
2023/09/01 11:10:02;;;;;;;8.27;4.95;;;20.70;96.90;;;;;;5091853;28;20032;-52
2023/09/01 11:12:48;;;;;;;8.77;4.55;;;20.60;96.80;;;;;;5092367;28;20028;-53
2023/09/01 11:15:41;;;;;;;7.13;4.95;;;20.70;96.80;;;;;;5076998;28;20031;-50
2023/09/01 11:18:27;;;;;;;7.88;4.45;;;20.80;96.40;;;;;;5091680;28;20119;-47
2023/09/01 11:21:13;;;;;;;7.97;4.95;;;21.00;96.70;;;;;;5091919;28;20088;-46
2023/09/01 11:24:00;;;;;;;8.88;4.63;;;20.90;96.60;;;;;;5075876;28;20446;-52
2023/09/01 11:26:48;;;;;;;9.07;4.63;;;20.80;96.70;;;;;;5090722;28;20553;-50
2023/09/01 11:29:34;;;;;;;9.77;5.32;;;20.50;97.10;;;;;;5091339;28;20028;-50
2023/09/01 11:32:27;;;;;;;8.70;4.50;;;20.50;97.20;;;;;;5091590;28;20396;-47
2023/09/01 11:35:29;;;;;;;5.85;4.45;;;20.80;97.30;;;;;;5089884;28;20031;-46
2023/09/01 11:38:21;;;;;;;6.38;4.40;;;21.00;97.30;;;;;;5076201;28;20032;-49
2023/09/01 11:41:11;;;;;;;6.38;4.50;;;21.00;96.60;;;;;;5061916;28;20070;-52
2023/09/01 11:43:58;;;;;;;7.13;4.45;;;20.90;97.30;;;;;;5091069;28;20032;-53
2023/09/01 11:46:44;;;;;;;6.28;4.43;;;20.90;96.90;;;;;;5073429;28;20055;-51
2023/09/01 11:49:30;;;;;;;7.57;4.60;;;20.90;96.40;;;;;;5090969;28;20535;-50
2023/09/01 11:52:16;;;;;;;6.47;4.60;;;21.20;96.70;;;;;;5075148;28;20028;-54
2023/09/01 11:55:02;;;;;;;5.07;4.28;;;21.40;96.50;;;;;;5075075;28;20024;-54
2023/09/01 11:57:54;;;;;;;7.78;3.92;;;21.50;96.60;;;;;;5090511;28;20024;-50
2023/09/01 12:00:40;;;;;;;4.72;3.80;;;21.50;96.70;;;;;;5091018;28;20024;-52
2023/09/01 12:03:26;;;;;;;5.32;4.18;;;21.40;97.10;;;;;;5074627;28;20036;-53
2023/09/01 12:06:23;;;;;;;5.43;3.97;;;21.40;97.10;;;;;;5090082;28;20031;-54
2023/09/01 12:09:11;;;;;;;4.45;3.85;;;21.60;97.10;;;;;;5075186;28;20032;-53
2023/09/01 12:12:02;;;;;;;6.53;4.30;;;21.80;96.70;;;;;;5090398;28;20106;-53
2023/09/01 12:14:49;;;;;;;5.55;4.10;;;21.90;96.70;;;;;;5089569;28;20027;-53
2023/09/01 12:17:35;;;;;;;8.13;3.88;;;21.90;96.10;;;;;;5089860;28;20028;-52
2023/09/01 12:20:21;;;;;;;7.18;4.20;;;21.70;96.50;;;;;;5090243;28;20514;-53
2023/09/01 12:23:07;;;;;;;7.20;4.18;;;21.60;96.60;;;;;;5089411;28;20054;-50
2023/09/01 12:25:53;;;;;;;6.50;4.22;;;21.70;96.50;;;;;;5089473;28;20020;-49
2023/09/01 12:28:41;;;;;;;6.20;4.40;;;21.80;96.60;;;;;;5089720;28;20039;-50
2023/09/01 12:31:27;;;;;;;4.72;3.80;;;21.80;96.90;;;;;;5089145;28;20063;-53
2023/09/01 12:34:13;;;;;;;5.15;3.85;;;21.70;96.70;;;;;;5090166;28;20024;-51
2023/09/01 12:36:59;;;;;;;5.05;3.58;;;21.70;96.70;;;;;;5090178;28;20032;-54
2023/09/01 12:39:44;;;;;;;5.10;3.38;;;21.60;97.10;;;;;;5089286;28;20024;-54
2023/09/01 12:42:30;;;;;;;5.43;3.90;;;21.60;96.90;;;;;;5089169;28;20024;-50
2023/09/01 12:45:16;;;;;;;5.45;3.90;;;21.50;97.10;;;;;;5090072;28;20025;-51
2023/09/01 12:48:03;;;;;;;6.45;3.92;;;21.40;97.00;;;;;;5095867;28;20031;-51
2023/09/01 12:50:49;;;;;;;6.82;3.88;;;21.60;97.10;;;;;;5095895;28;20543;-48
2023/09/01 12:53:35;;;;;;;4.03;3.60;;;21.50;97.20;;;;;;5096574;28;20111;-49
2023/09/01 12:56:21;;;;;;;6.00;3.97;;;21.40;97.30;;;;;;5080533;28;20081;-53
2023/09/01 12:59:07;;;;;;;4.15;3.42;;;21.40;97.40;;;;;;5081094;28;20087;-48
2023/09/01 13:01:53;;;;;;;6.03;3.80;;;21.20;98.10;;;;;;5096543;28;20032;-53
2023/09/01 13:04:40;;;;;;;3.78;3.35;;;21.30;98.10;;;;;;5096627;28;20024;-54
2023/09/01 13:07:26;;;;;;;4.05;3.38;;;21.40;98.10;;;;;;5096002;28;20473;-54
2023/09/01 13:10:12;;;;;;;4.95;3.50;;;21.20;98.30;;;;;;5095744;28;20541;-48
2023/09/01 13:12:59;;;;;;;4.97;3.40;;;21.20;98.00;;;;;;5093163;28;20129;-51
2023/09/01 13:15:47;;;;;;;4.30;3.50;;;21.20;97.70;;;;;;5088730;28;20032;-60
2023/09/01 13:18:33;;;;;;;4.45;3.30;;;21.30;97.60;;;;;;5083773;28;20099;-52
2023/09/01 13:21:19;;;;;;;5.60;3.40;;;21.30;98.10;;;;;;5084068;28;20032;-55
2023/09/01 13:24:05;;;;;;;4.88;3.85;;;21.20;98.30;;;;;;5086967;28;20153;-50
2023/09/01 13:26:52;;;;;;;4.25;3.13;;;21.00;98.70;;;;;;5086177;28;20032;-56
2023/09/01 13:29:38;;;;;;;6.75;3.65;;;21.00;98.70;;;;;;5075911;28;20060;-54
2023/09/01 13:32:24;;;;;;;4.28;3.55;;;21.00;98.50;;;;;;5059966;28;20033;-53
2023/09/01 13:35:09;;;;;;;5.07;3.50;;;20.80;98.90;;;;;;5063145;28;20028;-54
2023/09/01 13:37:55;;;;;;;6.68;3.67;;;20.70;99.80;;;;;;5086241;28;20047;-52
2023/09/01 13:40:41;;;;;;;20.13;16.08;;;20.70;99.90;;;;;;5069465;28;20029;-53
2023/09/01 13:43:27;;;;;;;41.58;37.22;;;20.70;99.70;;;;;;5077837;28;20028;-53
2023/09/01 13:46:17;;;;;;;61.58;54.65;;;20.80;99.20;;;;;;5083924;28;20373;-54
2023/09/01 13:49:07;;;;;;;29.70;26.23;;;20.80;99.60;;;;;;5096155;28;20028;-55
2023/09/01 13:51:53;;;;;;;15.10;13.52;;;20.80;99.70;;;;;;5096292;28;20024;-54
2023/09/01 13:54:39;;;;;;;10.48;7.35;;;20.70;99.60;;;;;;5091103;28;20024;-56
2023/09/01 13:57:25;;;;;;;11.70;7.07;;;20.70;99.70;;;;;;5059598;28;20037;-51
2023/09/01 14:00:11;;;;;;;9.48;7.50;;;20.60;99.90;;;;;;5072702;28;20094;-55
2023/09/01 14:02:57;;;;;;;5.75;3.78;;;20.60;99.90;;;;;;5072351;28;20032;-52
2023/09/01 14:05:43;;;;;;;5.82;4.25;;;20.60;99.90;;;;;;5072024;28;20037;-54
2023/09/01 14:08:29;;;;;;;7.65;4.93;;;20.70;99.90;;;;;;5072916;28;20110;-52
2023/09/01 14:11:15;;;;;;;5.18;3.72;;;20.70;99.90;;;;;;5073435;28;20033;-53
2023/09/01 14:14:02;;;;;;;4.45;3.55;;;20.60;99.90;;;;;;5073317;28;20031;-52
2023/09/01 14:16:48;;;;;;;4.07;3.50;;;20.70;99.90;;;;;;5072596;28;20025;-55
2023/09/01 14:19:34;;;;;;;8.25;4.30;;;20.80;99.90;;;;;;5073341;28;20119;-54
2023/09/01 14:22:21;;;;;;;4.10;2.90;;;20.90;99.90;;;;;;5073490;28;20039;-54
2023/09/01 14:25:07;;;;;;;4.50;3.00;;;20.80;99.20;;;;;;5072976;28;20025;-53
2023/09/01 14:27:53;;;;;;;4.03;3.10;;;20.80;99.60;;;;;;5073615;28;20020;-55